sensor_id;sensor_type;location;lat;lon;timestamp;P1;durP1;ratioP1;P2;durP2;ratioP2
3070;SDS011;1546;47.208;9.038;2022-08-19T00:00:09;6.87;;;5.50;;
3070;SDS011;1546;47.208;9.038;2022-08-19T00:02:59;7.70;;;5.83;;
3070;SDS011;1546;47.208;9.038;2022-08-19T00:05:44;10.63;;;5.90;;
3070;SDS011;1546;47.208;9.038;2022-08-19T00:08:30;4.95;;;4.38;;
3070;SDS011;1546;47.208;9.038;2022-08-19T00:11:15;5.70;;;4.97;;
3070;SDS011;1546;47.208;9.038;2022-08-19T00:14:01;6.25;;;4.43;;
3070;SDS011;1546;47.208;9.038;2022-08-19T00:16:47;6.70;;;5.77;;
3070;SDS011;1546;47.208;9.038;2022-08-19T00:19:36;6.73;;;5.30;;
3070;SDS011;1546;47.208;9.038;2022-08-19T00:22:22;6.57;;;5.23;;
3070;SDS011;1546;47.208;9.038;2022-08-19T00:25:10;6.37;;;4.60;;
3070;SDS011;1546;47.208;9.038;2022-08-19T00:27:56;6.33;;;3.97;;
3070;SDS011;1546;47.208;9.038;2022-08-19T00:30:42;6.20;;;5.50;;
3070;SDS011;1546;47.208;9.038;2022-08-19T00:33:28;5.13;;;4.63;;
3070;SDS011;1546;47.208;9.038;2022-08-19T00:36:17;5.00;;;4.33;;
3070;SDS011;1546;47.208;9.038;2022-08-19T00:39:03;6.07;;;5.47;;
3070;SDS011;1546;47.208;9.038;2022-08-19T00:41:49;6.55;;;4.90;;
3070;SDS011;1546;47.208;9.038;2022-08-19T00:44:36;8.02;;;5.47;;
3070;SDS011;1546;47.208;9.038;2022-08-19T00:47:21;6.60;;;4.85;;
3070;SDS011;1546;47.208;9.038;2022-08-19T00:50:08;6.93;;;5.77;;
3070;SDS011;1546;47.208;9.038;2022-08-19T00:52:55;6.80;;;5.88;;
3070;SDS011;1546;47.208;9.038;2022-08-19T00:55:41;6.57;;;5.13;;
3070;SDS011;1546;47.208;9.038;2022-08-19T00:58:30;7.30;;;5.90;;
3070;SDS011;1546;47.208;9.038;2022-08-19T01:01:19;10.77;;;6.43;;
3070;SDS011;1546;47.208;9.038;2022-08-19T01:04:05;13.20;;;7.77;;
3070;SDS011;1546;47.208;9.038;2022-08-19T01:06:50;11.35;;;8.50;;
3070;SDS011;1546;47.208;9.038;2022-08-19T01:09:38;9.73;;;8.05;;
3070;SDS011;1546;47.208;9.038;2022-08-19T01:12:23;10.03;;;9.03;;
3070;SDS011;1546;47.208;9.038;2022-08-19T01:15:11;10.10;;;8.60;;
3070;SDS011;1546;47.208;9.038;2022-08-19T01:17:59;11.23;;;10.10;;
3070;SDS011;1546;47.208;9.038;2022-08-19T01:20:49;11.25;;;10.00;;
3070;SDS011;1546;47.208;9.038;2022-08-19T01:23:38;10.83;;;9.73;;
3070;SDS011;1546;47.208;9.038;2022-08-19T01:26:29;11.02;;;9.98;;
3070;SDS011;1546;47.208;9.038;2022-08-19T01:29:15;12.75;;;11.40;;
3070;SDS011;1546;47.208;9.038;2022-08-19T01:32:00;21.17;;;13.07;;
3070;SDS011;1546;47.208;9.038;2022-08-19T01:34:46;12.73;;;11.40;;
3070;SDS011;1546;47.208;9.038;2022-08-19T01:37:41;10.80;;;9.80;;
3070;SDS011;1546;47.208;9.038;2022-08-19T01:40:29;11.77;;;10.57;;
3070;SDS011;1546;47.208;9.038;2022-08-19T01:43:16;10.52;;;9.55;;
3070;SDS011;1546;47.208;9.038;2022-08-19T01:46:03;9.27;;;8.40;;
3070;SDS011;1546;47.208;9.038;2022-08-19T01:48:49;10.23;;;9.23;;
3070;SDS011;1546;47.208;9.038;2022-08-19T01:51:34;11.52;;;9.73;;
3070;SDS011;1546;47.208;9.038;2022-08-19T01:54:21;9.85;;;8.50;;
3070;SDS011;1546;47.208;9.038;2022-08-19T01:57:10;8.80;;;7.65;;
3070;SDS011;1546;47.208;9.038;2022-08-19T01:59:57;8.75;;;7.65;;
3070;SDS011;1546;47.208;9.038;2022-08-19T02:02:44;8.48;;;7.32;;
3070;SDS011;1546;47.208;9.038;2022-08-19T02:05:30;8.55;;;6.75;;
3070;SDS011;1546;47.208;9.038;2022-08-19T02:08:15;9.68;;;6.70;;
3070;SDS011;1546;47.208;9.038;2022-08-19T02:11:01;9.60;;;7.57;;
3070;SDS011;1546;47.208;9.038;2022-08-19T02:13:48;9.00;;;7.45;;
3070;SDS011;1546;47.208;9.038;2022-08-19T02:16:34;11.50;;;6.75;;
3070;SDS011;1546;47.208;9.038;2022-08-19T02:19:20;8.27;;;7.38;;
3070;SDS011;1546;47.208;9.038;2022-08-19T02:22:06;9.10;;;8.18;;
3070;SDS011;1546;47.208;9.038;2022-08-19T02:24:51;10.55;;;8.65;;
3070;SDS011;1546;47.208;9.038;2022-08-19T02:27:37;9.98;;;7.20;;
3070;SDS011;1546;47.208;9.038;2022-08-19T02:30:24;9.85;;;8.13;;
3070;SDS011;1546;47.208;9.038;2022-08-19T02:33:11;10.37;;;8.40;;
3070;SDS011;1546;47.208;9.038;2022-08-19T02:35:57;10.20;;;8.88;;
3070;SDS011;1546;47.208;9.038;2022-08-19T02:38:42;8.32;;;7.38;;
3070;SDS011;1546;47.208;9.038;2022-08-19T02:41:29;8.20;;;7.20;;
3070;SDS011;1546;47.208;9.038;2022-08-19T02:44:17;9.75;;;7.45;;
3070;SDS011;1546;47.208;9.038;2022-08-19T02:47:04;7.60;;;6.55;;
3070;SDS011;1546;47.208;9.038;2022-08-19T02:49:49;8.75;;;7.47;;
3070;SDS011;1546;47.208;9.038;2022-08-19T02:52:35;8.02;;;7.13;;
3070;SDS011;1546;47.208;9.038;2022-08-19T02:55:21;9.25;;;6.90;;
3070;SDS011;1546;47.208;9.038;2022-08-19T02:58:07;10.20;;;8.85;;
3070;SDS011;1546;47.208;9.038;2022-08-19T03:00:53;8.43;;;7.32;;
3070;SDS011;1546;47.208;9.038;2022-08-19T03:03:41;11.40;;;9.30;;
3070;SDS011;1546;47.208;9.038;2022-08-19T03:06:27;8.63;;;7.70;;
3070;SDS011;1546;47.208;9.038;2022-08-19T03:09:13;8.77;;;7.88;;
3070;SDS011;1546;47.208;9.038;2022-08-19T03:11:59;10.50;;;9.40;;
3070;SDS011;1546;47.208;9.038;2022-08-19T03:14:44;11.60;;;8.93;;
3070;SDS011;1546;47.208;9.038;2022-08-19T03:17:30;7.93;;;7.13;;
3070;SDS011;1546;47.208;9.038;2022-08-19T03:20:17;36.17;;;10.15;;
3070;SDS011;1546;47.208;9.038;2022-08-19T03:23:03;8.45;;;7.55;;
3070;SDS011;1546;47.208;9.038;2022-08-19T03:25:49;12.02;;;10.07;;
3070;SDS011;1546;47.208;9.038;2022-08-19T03:28:37;8.48;;;7.60;;
3070;SDS011;1546;47.208;9.038;2022-08-19T03:31:23;9.93;;;8.57;;
3070;SDS011;1546;47.208;9.038;2022-08-19T03:34:09;9.80;;;7.80;;
3070;SDS011;1546;47.208;9.038;2022-08-19T03:36:57;9.93;;;8.75;;
3070;SDS011;1546;47.208;9.038;2022-08-19T03:39:44;9.73;;;8.73;;
3070;SDS011;1546;47.208;9.038;2022-08-19T03:42:30;9.57;;;8.10;;
3070;SDS011;1546;47.208;9.038;2022-08-19T03:45:16;13.77;;;11.67;;
3070;SDS011;1546;47.208;9.038;2022-08-19T03:48:01;12.90;;;9.47;;
3070;SDS011;1546;47.208;9.038;2022-08-19T03:50:47;14.60;;;12.27;;
3070;SDS011;1546;47.208;9.038;2022-08-19T03:53:35;11.20;;;10.07;;
3070;SDS011;1546;47.208;9.038;2022-08-19T03:56:20;12.82;;;10.75;;
3070;SDS011;1546;47.208;9.038;2022-08-19T03:59:07;14.70;;;11.47;;
3070;SDS011;1546;47.208;9.038;2022-08-19T04:01:56;9.70;;;8.70;;
3070;SDS011;1546;47.208;9.038;2022-08-19T04:04:44;10.93;;;8.93;;
3070;SDS011;1546;47.208;9.038;2022-08-19T04:07:29;12.20;;;10.90;;
3070;SDS011;1546;47.208;9.038;2022-08-19T04:10:16;14.50;;;12.50;;
3070;SDS011;1546;47.208;9.038;2022-08-19T04:13:02;13.98;;;11.60;;
3070;SDS011;1546;47.208;9.038;2022-08-19T04:15:48;10.68;;;9.57;;
3070;SDS011;1546;47.208;9.038;2022-08-19T04:18:34;8.95;;;8.05;;
3070;SDS011;1546;47.208;9.038;2022-08-19T04:21:21;7.18;;;6.30;;
3070;SDS011;1546;47.208;9.038;2022-08-19T04:24:09;7.17;;;6.47;;
3070;SDS011;1546;47.208;9.038;2022-08-19T04:26:58;8.07;;;7.25;;
3070;SDS011;1546;47.208;9.038;2022-08-19T04:29:44;7.13;;;6.20;;
3070;SDS011;1546;47.208;9.038;2022-08-19T04:32:29;9.20;;;7.80;;
3070;SDS011;1546;47.208;9.038;2022-08-19T04:35:15;10.68;;;8.77;;
3070;SDS011;1546;47.208;9.038;2022-08-19T04:38:01;10.55;;;9.23;;
3070;SDS011;1546;47.208;9.038;2022-08-19T04:40:47;10.80;;;8.50;;
3070;SDS011;1546;47.208;9.038;2022-08-19T04:43:53;8.45;;;6.78;;
3070;SDS011;1546;47.208;9.038;2022-08-19T04:46:39;10.48;;;9.30;;
3070;SDS011;1546;47.208;9.038;2022-08-19T04:49:25;12.65;;;10.25;;
3070;SDS011;1546;47.208;9.038;2022-08-19T04:52:10;9.85;;;8.85;;
3070;SDS011;1546;47.208;9.038;2022-08-19T04:54:56;9.88;;;8.10;;
3070;SDS011;1546;47.208;9.038;2022-08-19T04:57:42;9.18;;;8.27;;
3070;SDS011;1546;47.208;9.038;2022-08-19T05:00:29;9.32;;;8.20;;
3070;SDS011;1546;47.208;9.038;2022-08-19T05:03:15;11.70;;;10.27;;
3070;SDS011;1546;47.208;9.038;2022-08-19T05:06:03;10.43;;;8.50;;
3070;SDS011;1546;47.208;9.038;2022-08-19T05:08:51;8.60;;;6.90;;
3070;SDS011;1546;47.208;9.038;2022-08-19T05:11:36;7.30;;;5.50;;
3070;SDS011;1546;47.208;9.038;2022-08-19T05:14:23;6.75;;;4.95;;
3070;SDS011;1546;47.208;9.038;2022-08-19T05:17:10;6.90;;;5.67;;
3070;SDS011;1546;47.208;9.038;2022-08-19T05:19:55;8.27;;;6.83;;
3070;SDS011;1546;47.208;9.038;2022-08-19T05:22:59;8.35;;;6.57;;
3070;SDS011;1546;47.208;9.038;2022-08-19T05:25:44;7.00;;;6.30;;
3070;SDS011;1546;47.208;9.038;2022-08-19T05:28:30;10.38;;;8.90;;
3070;SDS011;1546;47.208;9.038;2022-08-19T05:31:16;13.70;;;9.77;;
3070;SDS011;1546;47.208;9.038;2022-08-19T05:34:03;11.60;;;8.52;;
3070;SDS011;1546;47.208;9.038;2022-08-19T05:36:49;10.50;;;9.00;;
3070;SDS011;1546;47.208;9.038;2022-08-19T05:39:39;8.65;;;7.75;;
3070;SDS011;1546;47.208;9.038;2022-08-19T05:42:25;7.00;;;5.90;;
3070;SDS011;1546;47.208;9.038;2022-08-19T05:45:11;8.40;;;7.40;;
3070;SDS011;1546;47.208;9.038;2022-08-19T05:47:57;6.30;;;5.03;;
3070;SDS011;1546;47.208;9.038;2022-08-19T05:50:44;7.57;;;6.25;;
3070;SDS011;1546;47.208;9.038;2022-08-19T05:53:30;6.50;;;5.20;;
3070;SDS011;1546;47.208;9.038;2022-08-19T05:56:16;6.77;;;5.63;;
3070;SDS011;1546;47.208;9.038;2022-08-19T05:59:04;5.05;;;4.43;;
3070;SDS011;1546;47.208;9.038;2022-08-19T06:01:54;7.10;;;6.38;;
3070;SDS011;1546;47.208;9.038;2022-08-19T06:04:40;8.63;;;6.50;;
3070;SDS011;1546;47.208;9.038;2022-08-19T06:07:28;7.27;;;5.40;;
3070;SDS011;1546;47.208;9.038;2022-08-19T06:10:13;6.65;;;4.70;;
3070;SDS011;1546;47.208;9.038;2022-08-19T06:12:59;8.00;;;5.30;;
3070;SDS011;1546;47.208;9.038;2022-08-19T06:15:45;6.97;;;5.57;;
3070;SDS011;1546;47.208;9.038;2022-08-19T06:18:31;7.63;;;6.10;;
3070;SDS011;1546;47.208;9.038;2022-08-19T06:21:17;5.38;;;4.25;;
3070;SDS011;1546;47.208;9.038;2022-08-19T06:24:05;7.15;;;5.10;;
3070;SDS011;1546;47.208;9.038;2022-08-19T06:26:53;7.25;;;4.95;;
3070;SDS011;1546;47.208;9.038;2022-08-19T06:29:40;5.97;;;5.17;;
3070;SDS011;1546;47.208;9.038;2022-08-19T06:32:26;6.25;;;4.45;;
3070;SDS011;1546;47.208;9.038;2022-08-19T06:35:11;7.75;;;4.85;;
3070;SDS011;1546;47.208;9.038;2022-08-19T06:37:58;5.40;;;4.00;;
3070;SDS011;1546;47.208;9.038;2022-08-19T06:40:44;5.82;;;4.88;;
3070;SDS011;1546;47.208;9.038;2022-08-19T06:43:30;6.20;;;4.93;;
3070;SDS011;1546;47.208;9.038;2022-08-19T06:46:16;7.43;;;5.60;;
3070;SDS011;1546;47.208;9.038;2022-08-19T06:49:03;5.60;;;3.83;;
3070;SDS011;1546;47.208;9.038;2022-08-19T06:51:50;5.05;;;3.40;;
3070;SDS011;1546;47.208;9.038;2022-08-19T06:54:35;4.60;;;3.20;;
3070;SDS011;1546;47.208;9.038;2022-08-19T06:57:22;5.05;;;3.30;;
3070;SDS011;1546;47.208;9.038;2022-08-19T07:00:09;4.90;;;2.67;;
3070;SDS011;1546;47.208;9.038;2022-08-19T07:02:55;4.07;;;2.20;;
3070;SDS011;1546;47.208;9.038;2022-08-19T07:05:41;3.55;;;2.33;;
3070;SDS011;1546;47.208;9.038;2022-08-19T07:08:27;3.63;;;2.43;;
3070;SDS011;1546;47.208;9.038;2022-08-19T07:11:13;3.40;;;2.00;;
3070;SDS011;1546;47.208;9.038;2022-08-19T07:14:03;5.20;;;2.63;;
3070;SDS011;1546;47.208;9.038;2022-08-19T07:16:50;5.25;;;2.60;;
3070;SDS011;1546;47.208;9.038;2022-08-19T07:19:38;3.85;;;2.38;;
3070;SDS011;1546;47.208;9.038;2022-08-19T07:22:24;4.50;;;3.08;;
3070;SDS011;1546;47.208;9.038;2022-08-19T07:25:10;18.50;;;3.40;;
3070;SDS011;1546;47.208;9.038;2022-08-19T07:27:56;4.65;;;3.03;;
3070;SDS011;1546;47.208;9.038;2022-08-19T07:30:43;7.55;;;3.90;;
3070;SDS011;1546;47.208;9.038;2022-08-19T07:33:29;4.75;;;3.60;;
3070;SDS011;1546;47.208;9.038;2022-08-19T07:36:17;4.93;;;3.80;;
3070;SDS011;1546;47.208;9.038;2022-08-19T07:39:08;4.55;;;4.15;;
3070;SDS011;1546;47.208;9.038;2022-08-19T07:41:55;3.90;;;3.17;;
3070;SDS011;1546;47.208;9.038;2022-08-19T07:44:42;4.25;;;3.05;;
3070;SDS011;1546;47.208;9.038;2022-08-19T07:47:29;5.18;;;3.50;;
3070;SDS011;1546;47.208;9.038;2022-08-19T07:50:15;4.75;;;3.85;;
3070;SDS011;1546;47.208;9.038;2022-08-19T07:53:02;4.88;;;4.35;;
3070;SDS011;1546;47.208;9.038;2022-08-19T07:55:48;6.57;;;4.50;;
3070;SDS011;1546;47.208;9.038;2022-08-19T07:58:34;6.18;;;4.68;;
3070;SDS011;1546;47.208;9.038;2022-08-19T08:01:22;6.00;;;4.70;;
3070;SDS011;1546;47.208;9.038;2022-08-19T08:04:11;5.60;;;5.10;;
3070;SDS011;1546;47.208;9.038;2022-08-19T08:07:14;5.25;;;4.65;;
3070;SDS011;1546;47.208;9.038;2022-08-19T08:10:17;7.82;;;5.07;;
3070;SDS011;1546;47.208;9.038;2022-08-19T08:13:03;6.68;;;6.00;;
3070;SDS011;1546;47.208;9.038;2022-08-19T08:15:49;9.65;;;7.07;;
3070;SDS011;1546;47.208;9.038;2022-08-19T08:18:34;5.60;;;5.10;;
3070;SDS011;1546;47.208;9.038;2022-08-19T08:21:26;7.20;;;6.60;;
3070;SDS011;1546;47.208;9.038;2022-08-19T08:24:12;6.55;;;6.05;;
3070;SDS011;1546;47.208;9.038;2022-08-19T08:26:58;5.63;;;5.13;;
3070;SDS011;1546;47.208;9.038;2022-08-19T08:29:45;7.70;;;7.03;;
3070;SDS011;1546;47.208;9.038;2022-08-19T08:32:32;8.50;;;4.47;;
3070;SDS011;1546;47.208;9.038;2022-08-19T08:35:18;6.07;;;5.57;;
3070;SDS011;1546;47.208;9.038;2022-08-19T08:38:06;6.38;;;5.60;;
3070;SDS011;1546;47.208;9.038;2022-08-19T08:40:53;6.40;;;5.50;;
3070;SDS011;1546;47.208;9.038;2022-08-19T08:43:51;6.47;;;6.05;;
3070;SDS011;1546;47.208;9.038;2022-08-19T08:46:39;7.82;;;7.22;;
3070;SDS011;1546;47.208;9.038;2022-08-19T08:49:40;8.05;;;7.53;;
3070;SDS011;1546;47.208;9.038;2022-08-19T08:52:33;14.13;;;13.43;;
3070;SDS011;1546;47.208;9.038;2022-08-19T08:55:24;12.02;;;11.32;;
3070;SDS011;1546;47.208;9.038;2022-08-19T08:58:13;14.13;;;13.10;;
3070;SDS011;1546;47.208;9.038;2022-08-19T09:01:06;14.75;;;13.75;;
3070;SDS011;1546;47.208;9.038;2022-08-19T09:03:53;14.48;;;13.48;;
3070;SDS011;1546;47.208;9.038;2022-08-19T09:06:40;16.20;;;15.10;;
3070;SDS011;1546;47.208;9.038;2022-08-19T09:09:37;21.45;;;20.27;;
3070;SDS011;1546;47.208;9.038;2022-08-19T09:12:30;18.15;;;17.05;;
3070;SDS011;1546;47.208;9.038;2022-08-19T09:15:25;21.75;;;20.45;;
3070;SDS011;1546;47.208;9.038;2022-08-19T09:18:16;16.10;;;14.90;;
3070;SDS011;1546;47.208;9.038;2022-08-19T09:21:02;15.48;;;14.13;;
3070;SDS011;1546;47.208;9.038;2022-08-19T09:23:47;16.83;;;15.65;;
3070;SDS011;1546;47.208;9.038;2022-08-19T09:26:33;21.63;;;20.48;;
3070;SDS011;1546;47.208;9.038;2022-08-19T09:29:20;18.38;;;17.08;;
3070;SDS011;1546;47.208;9.038;2022-08-19T09:32:05;16.60;;;15.40;;
3070;SDS011;1546;47.208;9.038;2022-08-19T09:34:51;20.20;;;18.80;;
3070;SDS011;1546;47.208;9.038;2022-08-19T09:37:38;17.40;;;16.30;;
3070;SDS011;1546;47.208;9.038;2022-08-19T09:40:24;19.40;;;18.10;;
3070;SDS011;1546;47.208;9.038;2022-08-19T09:43:10;16.70;;;15.60;;
3070;SDS011;1546;47.208;9.038;2022-08-19T09:45:57;18.88;;;17.55;;
3070;SDS011;1546;47.208;9.038;2022-08-19T09:48:43;17.70;;;16.25;;
3070;SDS011;1546;47.208;9.038;2022-08-19T09:51:32;16.80;;;15.65;;
3070;SDS011;1546;47.208;9.038;2022-08-19T09:54:18;18.42;;;17.05;;
3070;SDS011;1546;47.208;9.038;2022-08-19T09:57:03;20.40;;;18.88;;
3070;SDS011;1546;47.208;9.038;2022-08-19T09:59:50;21.20;;;19.70;;
3070;SDS011;1546;47.208;9.038;2022-08-19T10:02:38;17.45;;;16.15;;
3070;SDS011;1546;47.208;9.038;2022-08-19T10:05:24;17.50;;;15.85;;
3070;SDS011;1546;47.208;9.038;2022-08-19T10:08:28;14.25;;;12.95;;
3070;SDS011;1546;47.208;9.038;2022-08-19T10:11:16;12.85;;;11.75;;
3070;SDS011;1546;47.208;9.038;2022-08-19T10:14:03;15.75;;;14.35;;
3070;SDS011;1546;47.208;9.038;2022-08-19T10:16:50;16.38;;;15.18;;
3070;SDS011;1546;47.208;9.038;2022-08-19T10:19:37;17.15;;;15.65;;
3070;SDS011;1546;47.208;9.038;2022-08-19T10:22:23;17.27;;;15.85;;
3070;SDS011;1546;47.208;9.038;2022-08-19T10:25:09;17.67;;;14.68;;
3070;SDS011;1546;47.208;9.038;2022-08-19T10:27:56;35.42;;;33.13;;
3070;SDS011;1546;47.208;9.038;2022-08-19T10:30:42;35.85;;;33.85;;
3070;SDS011;1546;47.208;9.038;2022-08-19T10:33:27;38.60;;;36.13;;
3070;SDS011;1546;47.208;9.038;2022-08-19T10:36:16;36.85;;;34.55;;
3070;SDS011;1546;47.208;9.038;2022-08-19T10:39:04;36.15;;;33.63;;
3070;SDS011;1546;47.208;9.038;2022-08-19T10:41:51;39.55;;;36.80;;
3070;SDS011;1546;47.208;9.038;2022-08-19T10:44:37;44.70;;;42.00;;
3070;SDS011;1546;47.208;9.038;2022-08-19T10:47:23;40.47;;;37.70;;
3070;SDS011;1546;47.208;9.038;2022-08-19T10:50:08;46.17;;;42.90;;
3070;SDS011;1546;47.208;9.038;2022-08-19T10:53:13;40.00;;;37.40;;
3070;SDS011;1546;47.208;9.038;2022-08-19T10:55:59;45.13;;;41.97;;
3070;SDS011;1546;47.208;9.038;2022-08-19T10:58:59;49.58;;;46.65;;
3070;SDS011;1546;47.208;9.038;2022-08-19T11:01:46;40.60;;;38.20;;
3070;SDS011;1546;47.208;9.038;2022-08-19T11:04:32;44.10;;;41.20;;
3070;SDS011;1546;47.208;9.038;2022-08-19T11:07:18;37.88;;;35.63;;
3070;SDS011;1546;47.208;9.038;2022-08-19T11:10:07;39.75;;;37.55;;
3070;SDS011;1546;47.208;9.038;2022-08-19T11:12:54;44.58;;;41.60;;
3070;SDS011;1546;47.208;9.038;2022-08-19T11:15:40;43.20;;;40.60;;
3070;SDS011;1546;47.208;9.038;2022-08-19T11:18:25;40.33;;;37.75;;
3070;SDS011;1546;47.208;9.038;2022-08-19T11:21:12;45.55;;;43.05;;
3070;SDS011;1546;47.208;9.038;2022-08-19T11:24:01;48.13;;;45.03;;
3070;SDS011;1546;47.208;9.038;2022-08-19T11:26:50;44.97;;;42.50;;
3070;SDS011;1546;47.208;9.038;2022-08-19T11:29:40;47.47;;;45.05;;
3070;SDS011;1546;47.208;9.038;2022-08-19T11:32:25;39.65;;;37.45;;
3070;SDS011;1546;47.208;9.038;2022-08-19T11:35:11;39.00;;;36.80;;
3070;SDS011;1546;47.208;9.038;2022-08-19T11:37:57;43.92;;;41.13;;
3070;SDS011;1546;47.208;9.038;2022-08-19T11:40:44;51.55;;;48.60;;
3070;SDS011;1546;47.208;9.038;2022-08-19T11:43:31;51.53;;;48.63;;
3070;SDS011;1546;47.208;9.038;2022-08-19T11:46:17;52.80;;;49.58;;
3070;SDS011;1546;47.208;9.038;2022-08-19T11:49:03;54.75;;;51.63;;
3070;SDS011;1546;47.208;9.038;2022-08-19T11:51:52;46.78;;;44.00;;
3070;SDS011;1546;47.208;9.038;2022-08-19T11:54:38;51.55;;;48.65;;
3070;SDS011;1546;47.208;9.038;2022-08-19T11:57:24;43.15;;;40.35;;
3070;SDS011;1546;47.208;9.038;2022-08-19T12:00:12;43.05;;;40.53;;
3070;SDS011;1546;47.208;9.038;2022-08-19T12:02:58;41.05;;;38.40;;
3070;SDS011;1546;47.208;9.038;2022-08-19T12:05:43;38.03;;;35.38;;
3070;SDS011;1546;47.208;9.038;2022-08-19T12:08:29;36.92;;;34.65;;
3070;SDS011;1546;47.208;9.038;2022-08-19T12:11:15;39.67;;;37.10;;
3070;SDS011;1546;47.208;9.038;2022-08-19T12:14:00;40.03;;;37.33;;
3070;SDS011;1546;47.208;9.038;2022-08-19T12:16:47;41.13;;;38.22;;
3070;SDS011;1546;47.208;9.038;2022-08-19T12:19:33;42.58;;;39.67;;
3070;SDS011;1546;47.208;9.038;2022-08-19T12:22:20;39.95;;;37.40;;
3070;SDS011;1546;47.208;9.038;2022-08-19T12:25:09;43.70;;;40.50;;
3070;SDS011;1546;47.208;9.038;2022-08-19T12:27:56;44.00;;;40.80;;
3070;SDS011;1546;47.208;9.038;2022-08-19T12:30:41;38.38;;;35.72;;
3070;SDS011;1546;47.208;9.038;2022-08-19T12:33:28;39.45;;;36.53;;
3070;SDS011;1546;47.208;9.038;2022-08-19T12:36:15;36.85;;;34.33;;
3070;SDS011;1546;47.208;9.038;2022-08-19T12:39:02;39.10;;;36.10;;
3070;SDS011;1546;47.208;9.038;2022-08-19T12:41:47;38.97;;;35.75;;
3070;SDS011;1546;47.208;9.038;2022-08-19T12:44:33;37.60;;;34.58;;
3070;SDS011;1546;47.208;9.038;2022-08-19T12:47:19;35.20;;;32.55;;
3070;SDS011;1546;47.208;9.038;2022-08-19T12:50:07;36.60;;;33.42;;
3070;SDS011;1546;47.208;9.038;2022-08-19T12:52:53;37.38;;;34.42;;
3070;SDS011;1546;47.208;9.038;2022-08-19T12:55:38;38.53;;;35.53;;
3070;SDS011;1546;47.208;9.038;2022-08-19T12:58:25;36.83;;;33.33;;
3070;SDS011;1546;47.208;9.038;2022-08-19T13:01:11;37.78;;;34.65;;
3070;SDS011;1546;47.208;9.038;2022-08-19T13:03:58;39.25;;;35.47;;
3070;SDS011;1546;47.208;9.038;2022-08-19T13:06:46;44.97;;;41.78;;
3070;SDS011;1546;47.208;9.038;2022-08-19T13:09:31;42.53;;;39.10;;
3070;SDS011;1546;47.208;9.038;2022-08-19T13:12:17;45.65;;;42.05;;
3070;SDS011;1546;47.208;9.038;2022-08-19T13:15:04;45.53;;;42.08;;
3070;SDS011;1546;47.208;9.038;2022-08-19T13:17:51;44.58;;;41.47;;
3070;SDS011;1546;47.208;9.038;2022-08-19T13:20:39;48.88;;;44.97;;
3070;SDS011;1546;47.208;9.038;2022-08-19T13:23:27;45.75;;;42.47;;
3070;SDS011;1546;47.208;9.038;2022-08-19T13:26:12;32.83;;;30.00;;
3070;SDS011;1546;47.208;9.038;2022-08-19T13:28:59;42.78;;;39.42;;
3070;SDS011;1546;47.208;9.038;2022-08-19T13:32:03;37.58;;;34.67;;
3070;SDS011;1546;47.208;9.038;2022-08-19T13:35:17;34.67;;;31.88;;
3070;SDS011;1546;47.208;9.038;2022-08-19T13:38:03;34.42;;;31.73;;
3070;SDS011;1546;47.208;9.038;2022-08-19T13:40:50;38.83;;;35.78;;
3070;SDS011;1546;47.208;9.038;2022-08-19T13:43:37;34.85;;;31.75;;
3070;SDS011;1546;47.208;9.038;2022-08-19T13:46:22;30.88;;;27.80;;
3070;SDS011;1546;47.208;9.038;2022-08-19T13:49:08;32.47;;;29.63;;
3070;SDS011;1546;47.208;9.038;2022-08-19T13:51:53;30.95;;;28.35;;
3070;SDS011;1546;47.208;9.038;2022-08-19T13:54:39;32.40;;;29.60;;
3070;SDS011;1546;47.208;9.038;2022-08-19T13:57:26;33.20;;;30.42;;
3070;SDS011;1546;47.208;9.038;2022-08-19T14:00:13;28.80;;;26.23;;
3070;SDS011;1546;47.208;9.038;2022-08-19T14:03:02;31.92;;;29.02;;
3070;SDS011;1546;47.208;9.038;2022-08-19T14:05:47;31.38;;;28.60;;
3070;SDS011;1546;47.208;9.038;2022-08-19T14:08:33;36.58;;;32.92;;
3070;SDS011;1546;47.208;9.038;2022-08-19T14:11:23;27.38;;;24.55;;
3070;SDS011;1546;47.208;9.038;2022-08-19T14:14:10;23.50;;;21.40;;
3070;SDS011;1546;47.208;9.038;2022-08-19T14:16:55;29.30;;;26.70;;
3070;SDS011;1546;47.208;9.038;2022-08-19T14:19:41;29.02;;;26.45;;
3070;SDS011;1546;47.208;9.038;2022-08-19T14:22:27;29.92;;;27.05;;
3070;SDS011;1546;47.208;9.038;2022-08-19T14:25:13;29.63;;;26.83;;
3070;SDS011;1546;47.208;9.038;2022-08-19T14:28:00;29.58;;;26.70;;
3070;SDS011;1546;47.208;9.038;2022-08-19T14:30:47;22.85;;;20.65;;
3070;SDS011;1546;47.208;9.038;2022-08-19T14:33:32;20.63;;;18.55;;
3070;SDS011;1546;47.208;9.038;2022-08-19T14:36:18;18.20;;;16.27;;
3070;SDS011;1546;47.208;9.038;2022-08-19T14:39:05;20.65;;;18.38;;
3070;SDS011;1546;47.208;9.038;2022-08-19T14:41:51;24.83;;;21.15;;
3070;SDS011;1546;47.208;9.038;2022-08-19T14:44:37;22.63;;;20.30;;
3070;SDS011;1546;47.208;9.038;2022-08-19T14:47:24;29.30;;;25.05;;
3070;SDS011;1546;47.208;9.038;2022-08-19T14:50:10;27.85;;;23.63;;
3070;SDS011;1546;47.208;9.038;2022-08-19T14:53:00;24.08;;;20.85;;
3070;SDS011;1546;47.208;9.038;2022-08-19T14:55:47;24.38;;;21.85;;
3070;SDS011;1546;47.208;9.038;2022-08-19T14:58:32;25.20;;;22.65;;
3070;SDS011;1546;47.208;9.038;2022-08-19T15:01:19;31.45;;;28.08;;
3070;SDS011;1546;47.208;9.038;2022-08-19T15:04:08;27.38;;;22.67;;
3070;SDS011;1546;47.208;9.038;2022-08-19T15:06:53;28.58;;;25.92;;
3070;SDS011;1546;47.208;9.038;2022-08-19T15:09:39;29.92;;;26.95;;
3070;SDS011;1546;47.208;9.038;2022-08-19T15:12:25;46.80;;;43.60;;
3070;SDS011;1546;47.208;9.038;2022-08-19T15:15:11;48.90;;;44.95;;
3070;SDS011;1546;47.208;9.038;2022-08-19T15:17:58;55.75;;;51.95;;
3070;SDS011;1546;47.208;9.038;2022-08-19T15:20:47;51.95;;;47.28;;
3070;SDS011;1546;47.208;9.038;2022-08-19T15:23:33;55.70;;;51.80;;
3070;SDS011;1546;47.208;9.038;2022-08-19T15:26:19;56.75;;;52.20;;
3070;SDS011;1546;47.208;9.038;2022-08-19T15:29:05;53.83;;;49.53;;
3070;SDS011;1546;47.208;9.038;2022-08-19T15:31:51;55.05;;;50.78;;
3070;SDS011;1546;47.208;9.038;2022-08-19T15:34:38;43.90;;;40.85;;
3070;SDS011;1546;47.208;9.038;2022-08-19T15:37:25;41.97;;;38.72;;
3070;SDS011;1546;47.208;9.038;2022-08-19T15:40:11;42.97;;;39.65;;
3070;SDS011;1546;47.208;9.038;2022-08-19T15:42:56;44.50;;;35.50;;
3070;SDS011;1546;47.208;9.038;2022-08-19T15:45:43;32.85;;;29.65;;
3070;SDS011;1546;47.208;9.038;2022-08-19T15:48:29;31.45;;;28.73;;
3070;SDS011;1546;47.208;9.038;2022-08-19T15:51:14;29.00;;;26.23;;
3070;SDS011;1546;47.208;9.038;2022-08-19T15:54:02;31.80;;;28.70;;
3070;SDS011;1546;47.208;9.038;2022-08-19T15:56:49;33.10;;;30.00;;
3070;SDS011;1546;47.208;9.038;2022-08-19T15:59:53;32.00;;;24.25;;
3070;SDS011;1546;47.208;9.038;2022-08-19T16:02:56;29.70;;;25.38;;
3070;SDS011;1546;47.208;9.038;2022-08-19T16:05:59;28.40;;;24.92;;
3070;SDS011;1546;47.208;9.038;2022-08-19T16:09:04;24.83;;;20.38;;
3070;SDS011;1546;47.208;9.038;2022-08-19T16:11:49;25.73;;;22.52;;
3070;SDS011;1546;47.208;9.038;2022-08-19T16:14:35;22.52;;;20.02;;
3070;SDS011;1546;47.208;9.038;2022-08-19T16:17:22;24.25;;;20.05;;
3070;SDS011;1546;47.208;9.038;2022-08-19T16:20:08;27.98;;;25.10;;
3070;SDS011;1546;47.208;9.038;2022-08-19T16:22:58;21.85;;;19.60;;
3070;SDS011;1546;47.208;9.038;2022-08-19T16:25:48;29.50;;;21.10;;
3070;SDS011;1546;47.208;9.038;2022-08-19T16:28:33;28.45;;;21.00;;
3070;SDS011;1546;47.208;9.038;2022-08-19T16:31:18;28.08;;;24.27;;
3070;SDS011;1546;47.208;9.038;2022-08-19T16:34:04;27.45;;;22.23;;
3070;SDS011;1546;47.208;9.038;2022-08-19T16:36:50;30.02;;;21.92;;
3070;SDS011;1546;47.208;9.038;2022-08-19T16:39:35;27.00;;;22.88;;
3070;SDS011;1546;47.208;9.038;2022-08-19T16:42:23;29.00;;;22.65;;
3070;SDS011;1546;47.208;9.038;2022-08-19T16:45:09;28.90;;;25.77;;
3070;SDS011;1546;47.208;9.038;2022-08-19T16:47:54;27.95;;;23.80;;
3070;SDS011;1546;47.208;9.038;2022-08-19T16:50:41;32.55;;;25.48;;
3070;SDS011;1546;47.208;9.038;2022-08-19T16:53:30;30.60;;;24.20;;
3070;SDS011;1546;47.208;9.038;2022-08-19T16:56:15;34.47;;;25.98;;
3070;SDS011;1546;47.208;9.038;2022-08-19T16:59:03;30.50;;;24.70;;
3070;SDS011;1546;47.208;9.038;2022-08-19T17:01:49;37.60;;;28.02;;